Time;durP1;ratioP1;P1;durP2;ratioP2;P2;SDS_P1;SDS_P2;PMS_P1;PMS_P2;Temp;Humidity;BMP_temperature;BMP_pressure;BME280_temperature;BME280_humidity;BME280_pressure;Samples;Min_cycle;Max_cycle;Signal;HPM_P1;HPM_P2
2021/10/23 00:01:00;;;;;;;26.00;16.17;;;;;;;11.38;100.00;99912.45;1719206;83;21574;-71
2021/10/23 00:03:28;;;;;;;28.92;16.60;;;;;;;11.37;100.00;99905.38;1700375;83;21039;-70
2021/10/23 00:05:56;;;;;;;27.30;15.88;;;;;;;11.35;100.00;99893.37;1712695;83;21069;-70
2021/10/23 00:08:23;;;;;;;28.12;15.18;;;;;;;11.33;100.00;99903.54;1698446;84;21099;-69
2021/10/23 00:10:51;;;;;;;26.55;13.48;;;;;;;11.32;100.00;99895.08;1687679;84;21088;-70
2021/10/23 00:13:18;;;;;;;26.23;14.85;;;;;;;11.31;100.00;99887.13;1688152;85;21115;-70
2021/10/23 00:15:45;;;;;;;25.37;14.18;;;;;;;11.30;100.00;99882.23;1687934;85;21080;-69
2021/10/23 00:18:12;;;;;;;25.48;13.90;;;;;;;11.27;100.00;99870.92;1681640;85;21048;-71
2021/10/23 00:20:39;;;;;;;25.68;15.40;;;;;;;11.23;100.00;99862.33;1681625;84;21013;-70
2021/10/23 00:23:06;;;;;;;24.32;14.20;;;;;;;11.21;100.00;99869.27;1688125;85;21023;-71
2021/10/23 00:25:33;;;;;;;25.97;14.28;;;;;;;11.18;100.00;99862.02;1681340;85;21060;-70
2021/10/23 00:28:00;;;;;;;23.65;13.38;;;;;;;11.16;100.00;99873.02;1681894;85;21565;-69
2021/10/23 00:30:28;;;;;;;21.85;12.93;;;;;;;11.14;100.00;99868.30;1683123;85;21025;-71
2021/10/23 00:33:01;;;;;;;23.95;13.03;;;;;;;11.12;100.00;99865.42;1680095;85;21577;-71
2021/10/23 00:35:24;;;;;;;26.55;14.10;;;;;;;11.07;100.00;99862.44;1679037;85;21029;-69
2021/10/23 00:37:51;;;;;;;27.22;14.43;;;;;;;11.01;100.00;99868.03;1679967;85;21075;-70
2021/10/23 00:40:18;;;;;;;28.60;14.75;;;;;;;10.95;100.00;99870.94;1680109;85;21068;-71
2021/10/23 00:42:45;;;;;;;23.67;15.05;;;;;;;10.91;100.00;99868.79;1679111;84;21518;-70
2021/10/23 00:45:12;;;;;;;26.27;15.08;;;;;;;10.87;100.00;99860.67;1678593;85;21029;-71
2021/10/23 00:47:41;;;;;;;23.12;13.43;;;;;;;10.86;100.00;99858.48;1678949;85;21564;-71
2021/10/23 00:50:08;;;;;;;25.10;13.90;;;;;;;10.83;100.00;99850.20;1679259;85;20980;-69
2021/10/23 00:52:35;;;;;;;24.43;13.90;;;;;;;10.83;100.00;99852.07;1656831;85;21539;-70
2021/10/23 00:55:03;;;;;;;28.38;14.43;;;;;;;10.80;100.00;99853.28;1680097;83;21019;-69
2021/10/23 00:57:30;;;;;;;26.60;13.95;;;;;;;10.75;100.00;99845.38;1690090;83;21030;-70
2021/10/23 00:59:57;;;;;;;27.98;14.40;;;;;;;10.71;100.00;99856.19;1713624;82;21042;-69
2021/10/23 01:02:24;;;;;;;24.63;13.85;;;;;;;10.68;100.00;99863.30;1720128;83;21038;-71
2021/10/23 01:04:51;;;;;;;26.77;14.50;;;;;;;10.61;100.00;99859.95;1710547;84;20988;-70
2021/10/23 01:07:18;;;;;;;30.43;13.38;;;;;;;10.59;100.00;99867.92;1711802;84;21046;-70
2021/10/23 01:09:47;;;;;;;26.17;13.18;;;;;;;10.55;100.00;99878.73;1711538;83;21083;-70
2021/10/23 01:12:14;;;;;;;25.08;14.40;;;;;;;10.52;100.00;99871.00;1711512;84;21051;-70
2021/10/23 01:14:42;;;;;;;26.30;14.20;;;;;;;10.47;100.00;99874.73;1711550;84;20983;-69
2021/10/23 01:17:09;;;;;;;24.77;14.53;;;;;;;10.43;100.00;99879.13;1710073;84;21066;-70
2021/10/23 01:19:37;;;;;;;25.97;14.38;;;;;;;10.40;100.00;99882.69;1711315;83;21043;-70
2021/10/23 01:22:04;;;;;;;26.67;13.67;;;;;;;10.37;100.00;99880.32;1711414;83;21624;-70
2021/10/23 01:24:31;;;;;;;24.55;13.18;;;;;;;10.33;100.00;99882.53;1710203;84;21011;-70
2021/10/23 01:26:58;;;;;;;23.92;13.48;;;;;;;10.33;100.00;99882.53;1711373;84;21043;-70
2021/10/23 01:29:25;;;;;;;26.47;14.27;;;;;;;10.31;100.00;99881.00;1711748;84;21564;-70
2021/10/23 01:31:53;;;;;;;23.47;13.38;;;;;;;10.29;100.00;99873.55;1710285;83;21558;-70
2021/10/23 01:34:26;;;;;;;27.37;14.25;;;;;;;10.26;100.00;99864.77;1709982;84;21031;-70
2021/10/23 01:36:55;;;;;;;30.43;16.07;;;;;;;10.25;100.00;99870.34;1711514;84;21043;-70
2021/10/23 01:39:24;;;;;;;24.33;14.17;;;;;;;10.21;100.00;99877.95;1711757;83;21022;-69
2021/10/23 01:41:53;;;;;;;29.65;13.50;;;;;;;10.16;100.00;99874.92;1710318;84;21023;-71
2021/10/23 01:44:28;;;;;;;27.60;14.47;;;;;;;10.14;100.00;99876.12;1711795;84;21495;-70
2021/10/23 01:46:55;;;;;;;31.40;15.43;;;;;;;10.10;100.00;99880.20;1652296;87;21111;-70
2021/10/23 01:49:22;;;;;;;30.00;15.03;;;;;;;10.06;100.00;99879.70;1652031;87;21027;-70
2021/10/23 01:51:49;;;;;;;28.47;14.93;;;;;;;10.04;100.00;99883.09;1602553;89;21083;-70
2021/10/23 01:54:16;;;;;;;24.77;13.83;;;;;;;10.01;100.00;99880.72;1625924;88;21551;-70
2021/10/23 01:56:43;;;;;;;23.70;14.00;;;;;;;9.98;100.00;99883.23;1606725;89;21083;-71
2021/10/23 01:59:10;;;;;;;26.20;14.17;;;;;;;9.96;100.00;99885.27;1626000;88;21054;-71
2021/10/23 02:01:38;;;;;;;23.23;13.33;;;;;;;9.95;100.00;99889.48;1606513;88;21051;-70
2021/10/23 02:04:05;;;;;;;24.50;13.20;;;;;;;9.93;100.00;99884.25;1605483;89;21153;-70
2021/10/23 02:06:32;;;;;;;27.50;14.43;;;;;;;9.91;100.00;99886.28;1601713;89;21087;-71
2021/10/23 02:09:02;;;;;;;26.07;15.03;;;;;;;9.92;100.00;99889.85;1600348;88;21107;-70
2021/10/23 02:11:29;;;;;;;28.40;15.63;;;;;;;9.90;100.00;99896.77;1606167;89;21106;-70
2021/10/23 02:13:57;;;;;;;28.73;14.77;;;;;;;9.85;100.00;99893.22;1605258;86;21132;-70
2021/10/23 02:16:24;;;;;;;27.53;15.40;;;;;;;9.84;100.00;99890.69;1602500;89;21118;-70
2021/10/23 02:18:53;;;;;;;26.03;15.30;;;;;;;9.81;100.00;99893.23;1599703;90;21552;-69
2021/10/23 02:21:20;;;;;;;27.20;15.83;;;;;;;9.79;100.00;99899.80;1599700;90;21076;-70
2021/10/23 02:23:47;;;;;;;28.80;15.23;;;;;;;9.78;100.00;99904.88;1625240;88;21087;-70
2021/10/23 02:26:14;;;;;;;27.50;15.00;;;;;;;9.75;100.00;99901.16;1605507;89;21583;-70
2021/10/23 02:28:41;;;;;;;23.63;13.97;;;;;;;9.72;100.00;99906.89;1603756;89;21058;-68
2021/10/23 02:31:08;;;;;;;25.57;14.67;;;;;;;9.70;100.00;99905.70;1628153;88;21091;-70
2021/10/23 02:33:36;;;;;;;26.57;15.70;;;;;;;9.68;100.00;99908.60;1604166;89;21098;-71
2021/10/23 02:36:04;;;;;;;27.07;15.60;;;;;;;9.65;100.00;99910.77;1604279;88;21044;-71
2021/10/23 02:38:31;;;;;;;25.90;15.13;;;;;;;9.65;100.00;99914.81;1620964;88;21063;-70
2021/10/23 02:40:59;;;;;;;25.80;15.57;;;;;;;9.64;100.00;99915.33;1621182;88;21571;-70
2021/10/23 02:43:26;;;;;;;26.43;15.13;;;;;;;9.66;100.00;99919.21;1625401;86;21091;-70
2021/10/23 02:45:53;;;;;;;27.90;16.10;;;;;;;9.65;100.00;99925.13;1658600;86;21488;-71
2021/10/23 02:48:20;;;;;;;28.77;16.47;;;;;;;9.68;100.00;99918.53;1692205;84;21515;-71
2021/10/23 02:50:47;;;;;;;29.05;16.95;;;;;;;9.69;100.00;99922.94;1677807;85;21065;-70
2021/10/23 02:53:14;;;;;;;25.20;15.73;;;;;;;9.69;100.00;99927.81;1659181;85;21054;-71
2021/10/23 02:55:41;;;;;;;28.03;16.40;;;;;;;9.68;100.00;99934.25;1697341;83;21075;-71
2021/10/23 02:58:08;;;;;;;25.83;15.23;;;;;;;9.67;100.00;99936.59;1710533;83;21095;-71
2021/10/23 03:00:35;;;;;;;26.70;15.53;;;;;;;9.68;100.00;99933.38;1710138;84;20980;-71
2021/10/23 03:03:03;;;;;;;27.33;16.10;;;;;;;9.66;100.00;99931.36;1710071;84;21042;-69
2021/10/23 03:05:31;;;;;;;25.13;16.17;;;;;;;9.64;100.00;99927.98;1710033;84;21016;-70
2021/10/23 03:07:58;;;;;;;25.70;16.23;;;;;;;9.62;100.00;99930.02;1711384;84;21019;-70
2021/10/23 03:10:26;;;;;;;28.23;16.30;;;;;;;9.61;100.00;99922.91;1711519;83;21087;-70
2021/10/23 03:12:53;;;;;;;25.20;15.30;;;;;;;9.61;100.00;99924.27;1679823;85;21078;-70
2021/10/23 03:15:20;;;;;;;25.93;16.90;;;;;;;9.60;100.00;99922.08;1711799;84;21092;-70
2021/10/23 03:17:48;;;;;;;29.87;17.10;;;;;;;9.59;100.00;99919.03;1711655;83;21067;-70
2021/10/23 03:20:15;;;;;;;31.33;19.07;;;;;;;9.59;100.00;99916.84;1679994;85;21055;-70
2021/10/23 03:22:43;;;;;;;27.27;17.07;;;;;;;9.59;100.00;99928.48;1688080;84;21080;-69
2021/10/23 03:25:10;;;;;;;27.37;15.97;;;;;;;9.59;100.00;99925.78;1679953;85;21083;-69
2021/10/23 03:27:37;;;;;;;26.63;15.77;;;;;;;9.61;100.00;99922.91;1711111;84;21056;-70
2021/10/23 03:30:06;;;;;;;25.43;15.97;;;;;;;9.62;100.00;99927.31;1711437;83;21016;-70
2021/10/23 03:32:34;;;;;;;25.60;17.23;;;;;;;9.62;100.00;99914.66;1711952;83;21036;-69
2021/10/23 03:35:02;;;;;;;27.60;16.97;;;;;;;9.62;100.00;99925.45;1710976;83;21083;-69
2021/10/23 03:37:35;;;;;;;26.93;16.97;;;;;;;9.62;100.00;99920.05;1711708;84;21011;-71
2021/10/23 03:40:05;;;;;;;27.75;17.15;;;;;;;9.63;100.00;99920.89;1710601;84;20987;-70
2021/10/23 03:42:32;;;;;;;26.57;16.37;;;;;;;9.63;100.00;99915.01;1711651;84;21011;-70
2021/10/23 03:44:59;;;;;;;27.77;16.67;;;;;;;9.64;100.00;99908.58;1712055;84;21487;-70
2021/10/23 03:47:26;;;;;;;31.67;18.17;;;;;;;9.67;100.00;99918.21;1710325;84;21023;-70
2021/10/23 03:49:53;;;;;;;26.40;17.70;;;;;;;9.67;100.00;99912.81;1699478;84;21597;-70
2021/10/23 03:52:20;;;;;;;28.03;17.97;;;;;;;9.67;100.00;99917.70;1643219;87;21075;-70
2021/10/23 03:54:47;;;;;;;31.10;18.57;;;;;;;9.66;100.00;99914.65;1643927;87;21618;-71
2021/10/23 03:57:14;;;;;;;26.87;16.77;;;;;;;9.67;100.00;99909.59;1657981;85;21028;-70
2021/10/23 03:59:41;;;;;;;26.87;16.60;;;;;;;9.65;100.00;99919.73;1681737;85;21012;-69
2021/10/23 04:02:08;;;;;;;25.60;16.63;;;;;;;9.64;100.00;99923.94;1679896;84;21597;-70
2021/10/23 04:04:35;;;;;;;27.90;16.33;;;;;;;9.64;100.00;99925.29;1680545;84;21041;-70
2021/10/23 04:07:03;;;;;;;27.00;18.07;;;;;;;9.64;100.00;99922.59;1681468;85;21569;-70
2021/10/23 04:09:30;;;;;;;28.70;17.77;;;;;;;9.63;100.00;99918.19;1697230;84;21175;-69
2021/10/23 04:11:57;;;;;;;28.30;17.47;;;;;;;9.61;100.00;99922.40;1706397;84;21062;-70
2021/10/23 04:14:24;;;;;;;28.07;16.97;;;;;;;9.60;100.00;99918.03;1707650;84;20995;-70
2021/10/23 04:16:52;;;;;;;29.57;17.90;;;;;;;9.59;100.00;99917.68;1707286;84;21071;-71
2021/10/23 04:19:20;;;;;;;26.70;17.30;;;;;;;9.59;100.00;99923.59;1709030;84;21016;-70
2021/10/23 04:21:49;;;;;;;26.23;18.23;;;;;;;9.60;100.00;99921.25;1708675;84;21544;-69
2021/10/23 04:24:15;;;;;;;25.70;17.20;;;;;;;9.58;100.00;99933.56;1709289;83;21011;-70
2021/10/23 04:26:44;;;;;;;26.67;17.40;;;;;;;9.60;100.00;99950.42;1707395;84;21078;-70
2021/10/23 04:29:11;;;;;;;26.63;17.50;;;;;;;9.61;100.00;99953.45;1707601;84;21004;-70
2021/10/23 04:31:38;;;;;;;26.77;17.10;;;;;;;9.61;100.00;99961.55;1710775;83;21007;-71
2021/10/23 04:34:04;;;;;;;26.60;17.47;;;;;;;9.61;100.00;99960.20;1710865;83;21010;-71
2021/10/23 04:36:33;;;;;;;26.17;16.80;;;;;;;9.62;100.00;99970.52;1709284;83;21564;-71
2021/10/23 04:39:00;;;;;;;26.90;17.43;;;;;;;9.63;100.00;99973.53;1707618;84;21011;-70
2021/10/23 04:41:27;;;;;;;28.80;17.30;;;;;;;9.65;100.00;99971.50;1707444;84;21051;-71
2021/10/23 04:43:54;;;;;;;28.00;17.30;;;;;;;9.65;100.00;99981.82;1707590;84;21055;-72
2021/10/23 04:46:22;;;;;;;28.13;18.40;;;;;;;9.67;100.00;99978.44;1710598;83;21070;-70
2021/10/23 04:48:49;;;;;;;29.27;19.47;;;;;;;9.69;100.00;99993.13;1710736;83;21094;-71
2021/10/23 04:51:17;;;;;;;27.27;16.83;;;;;;;9.71;100.00;99988.41;1711010;83;21546;-71
2021/10/23 04:53:43;;;;;;;29.77;18.82;;;;;;;9.75;100.00;99995.66;1713872;83;21046;-71
2021/10/23 04:56:10;;;;;;;28.30;17.90;;;;;;;9.75;100.00;99996.50;1712583;83;21011;-71
2021/10/23 04:58:39;;;;;;;30.10;19.73;;;;;;;9.77;100.00;100004.44;1719739;83;21038;-71
2021/10/23 05:01:06;;;;;;;32.47;20.03;;;;;;;9.80;100.00;100010.86;1725373;82;21066;-71
2021/10/23 05:03:35;;;;;;;29.23;18.80;;;;;;;9.80;100.00;100017.09;1723001;83;21565;-72
2021/10/23 05:06:02;;;;;;;26.67;18.27;;;;;;;9.85;100.00;100019.31;1722793;83;21574;-71
2021/10/23 05:08:31;;;;;;;29.63;17.77;;;;;;;9.87;100.00;100011.37;1722102;83;20970;-72
2021/10/23 05:10:57;;;;;;;28.27;16.97;;;;;;;9.90;100.00;100004.80;1722008;83;20999;-71
2021/10/23 05:13:24;;;;;;;27.30;18.00;;;;;;;9.89;100.00;100013.39;1722306;83;21050;-72
2021/10/23 05:15:51;;;;;;;26.43;17.87;;;;;;;9.91;100.00;100015.09;1722224;83;21097;-72
2021/10/23 05:18:19;;;;;;;29.17;20.70;;;;;;;9.93;100.00;100022.52;1722011;83;21518;-71
2021/10/23 05:20:48;;;;;;;30.60;20.20;;;;;;;9.94;100.00;100027.76;1722059;83;21027;-71
2021/10/23 05:23:16;;;;;;;29.00;18.23;;;;;;;9.95;100.00;100037.56;1722141;83;21051;-72
2021/10/23 05:25:44;;;;;;;30.50;19.97;;;;;;;9.98;100.00;100054.77;1722018;83;21041;-71
2021/10/23 05:28:11;;;;;;;32.07;19.63;;;;;;;10.01;100.00;100067.11;1722374;83;21035;-72
2021/10/23 05:30:38;;;;;;;29.50;18.70;;;;;;;10.03;100.00;100070.48;1721890;83;21552;-71
2021/10/23 05:33:05;;;;;;;29.60;18.92;;;;;;;10.07;100.00;100075.88;1722247;83;21023;-72
2021/10/23 05:35:32;;;;;;;32.37;18.47;;;;;;;10.07;100.00;100071.34;1723014;83;22209;-70
2021/10/23 05:37:59;;;;;;;28.35;18.82;;;;;;;10.10;100.00;100086.36;1722122;83;21049;-71
2021/10/23 05:40:26;;;;;;;31.55;18.07;;;;;;;10.12;100.00;100092.44;1722420;83;21063;-71
2021/10/23 05:42:54;;;;;;;28.90;18.23;;;;;;;10.16;100.00;100087.55;1722777;83;21065;-71
2021/10/23 05:45:22;;;;;;;31.12;19.10;;;;;;;10.20;100.00;100086.22;1722550;83;20998;-71
2021/10/23 05:47:49;;;;;;;32.87;20.10;;;;;;;10.24;100.00;100082.99;1722364;83;21039;-71
2021/10/23 05:50:17;;;;;;;29.75;18.35;;;;;;;10.28;100.00;100080.80;1714836;83;21054;-75
2021/10/23 05:52:46;;;;;;;29.45;18.05;;;;;;;10.30;100.00;100082.83;1698308;83;21079;-71
2021/10/23 05:55:13;;;;;;;26.95;18.45;;;;;;;10.35;100.00;100085.90;1706635;83;21015;-72
2021/10/23 05:57:41;;;;;;;28.83;18.30;;;;;;;10.40;100.00;100093.52;1629403;87;21449;-71
2021/10/23 06:00:11;;;;;;;28.62;19.07;;;;;;;10.45;100.00;100089.80;1705557;83;21047;-71
2021/10/23 06:02:47;;;;;;;28.47;19.17;;;;;;;10.50;100.00;100095.55;1695094;83;20987;-71
2021/10/23 06:05:14;;;;;;;28.17;18.60;;;;;;;10.57;100.00;100108.73;1712191;83;21026;-71
2021/10/23 06:07:42;;;;;;;27.53;18.20;;;;;;;10.59;100.00;100107.21;1698097;84;21039;-71
2021/10/23 06:10:13;;;;;;;31.75;19.70;;;;;;;10.63;100.00;100110.73;1685415;84;21075;-71
2021/10/23 06:12:40;;;;;;;29.98;19.32;;;;;;;10.69;100.00;100106.50;1681785;85;21539;-72
2021/10/23 06:15:09;;;;;;;28.23;19.27;;;;;;;10.75;100.00;100105.84;1680756;85;21039;-71
2021/10/23 06:17:36;;;;;;;31.17;21.07;;;;;;;10.79;100.00;100103.63;1681897;85;21504;-73
2021/10/23 06:20:06;;;;;;;30.48;17.92;;;;;;;10.83;100.00;100090.09;1667348;85;21027;-72
2021/10/23 06:22:33;;;;;;;28.83;18.98;;;;;;;10.90;100.00;100100.56;1652011;85;21054;-72
2021/10/23 06:25:02;;;;;;;32.63;18.60;;;;;;;10.95;100.00;100090.08;1689979;84;21587;-71
2021/10/23 06:27:30;;;;;;;29.50;18.70;;;;;;;10.99;100.00;100094.11;1682345;84;20996;-73
2021/10/23 06:29:56;;;;;;;29.95;19.23;;;;;;;11.05;100.00;100100.72;1682158;84;21763;-72
2021/10/23 06:32:24;;;;;;;30.35;20.08;;;;;;;11.08;100.00;100105.77;1680338;85;21098;-72
2021/10/23 06:34:52;;;;;;;29.80;18.25;;;;;;;11.08;100.00;100100.35;1679055;85;21066;-72
2021/10/23 06:37:19;;;;;;;31.48;18.17;;;;;;;11.11;100.00;100093.77;1621616;87;21649;-72
2021/10/23 06:39:46;;;;;;;29.12;18.75;;;;;;;11.12;100.00;100086.84;1641902;87;21050;-71
2021/10/23 06:42:14;;;;;;;30.37;19.02;;;;;;;11.16;100.00;100071.92;1636591;88;21055;-71
2021/10/23 06:44:43;;;;;;;26.70;18.37;;;;;;;11.21;100.00;100076.31;1636367;88;21078;-72
2021/10/23 06:47:11;;;;;;;31.20;19.40;;;;;;;11.25;100.00;100070.04;1616812;87;21050;-71
2021/10/23 06:49:38;;;;;;;30.02;18.17;;;;;;;11.29;100.00;100071.37;1630503;87;21098;-72
2021/10/23 06:52:05;;;;;;;28.25;17.25;;;;;;;11.33;100.00;100050.20;1613940;88;21015;-72
2021/10/23 06:54:33;;;;;;;27.58;17.85;;;;;;;11.38;100.00;100052.74;1684216;85;21019;-72
2021/10/23 06:57:00;;;;;;;29.55;18.67;;;;;;;11.43;100.00;100054.91;1696053;83;21051;-72
2021/10/23 06:59:27;;;;;;;28.30;17.92;;;;;;;11.49;100.00;100054.70;1686031;85;21089;-72
2021/10/23 07:01:54;;;;;;;27.85;18.17;;;;;;;11.56;100.00;100052.48;1713329;83;21074;-70
2021/10/23 07:04:22;;;;;;;31.12;19.50;;;;;;;11.67;100.00;100051.72;1687108;85;21527;-72
2021/10/23 07:06:51;;;;;;;29.07;18.02;;;;;;;11.77;100.00;100048.28;1702812;83;21101;-71
2021/10/23 07:09:18;;;;;;;30.77;18.62;;;;;;;11.86;100.00;100048.56;1680110;84;21594;-71
2021/10/23 07:11:47;;;;;;;33.53;23.10;;;;;;;11.95;100.00;100037.19;1719969;82;21475;-70
2021/10/23 07:14:16;;;;;;;30.82;19.65;;;;;;;12.06;100.00;100035.95;1733526;82;21082;-70
2021/10/23 07:16:45;;;;;;;29.27;19.32;;;;;;;12.11;100.00;100033.03;1664362;85;21507;-72
2021/10/23 07:19:12;;;;;;;30.50;19.42;;;;;;;12.17;100.00;100030.62;1665917;85;21087;-72
2021/10/23 07:21:40;;;;;;;33.05;20.08;;;;;;;12.22;100.00;100026.85;1649410;86;21122;-71
2021/10/23 07:24:08;;;;;;;32.42;21.10;;;;;;;12.25;100.00;100017.84;1621281;87;21101;-64
2021/10/23 07:26:36;;;;;;;34.25;21.25;;;;;;;12.29;100.00;100027.81;1654826;85;21042;-72
2021/10/23 07:29:05;;;;;;;32.30;19.45;;;;;;;12.32;100.00;100055.89;1710818;82;21030;-72
2021/10/23 07:31:32;;;;;;;30.85;19.95;;;;;;;12.30;100.00;100064.20;1732802;82;21263;-72
2021/10/23 07:34:00;;;;;;;30.12;19.50;;;;;;;12.28;100.00;100062.71;1713774;82;21045;-72
2021/10/23 07:36:29;;;;;;;31.60;19.87;;;;;;;12.27;100.00;100059.66;1724889;82;21120;-73
2021/10/23 07:38:56;;;;;;;32.20;20.08;;;;;;;12.22;100.00;100057.50;1717242;82;20983;-72
2021/10/23 07:41:23;;;;;;;31.12;20.68;;;;;;;12.21;100.00;100055.81;1673034;84;21034;-72
2021/10/23 07:43:49;;;;;;;30.15;19.20;;;;;;;12.22;100.00;100061.58;1715559;82;21042;-72
2021/10/23 07:46:16;;;;;;;31.15;18.23;;;;;;;12.24;100.00;100060.04;1726882;82;20970;-72
2021/10/23 07:48:45;;;;;;;33.25;18.37;;;;;;;12.30;100.00;100071.50;1723141;82;21038;-71
2021/10/23 07:51:12;;;;;;;38.33;24.27;;;;;;;12.39;100.00;100075.83;1720129;82;21064;-72
2021/10/23 07:53:40;;;;;;;30.60;18.82;;;;;;;12.51;100.00;100076.24;1737720;82;21530;-72
2021/10/23 07:56:07;;;;;;;30.80;18.95;;;;;;;12.62;100.00;100080.38;1679363;83;21037;-72
2021/10/23 07:58:34;;;;;;;68.92;48.40;;;;;;;12.70;100.00;100074.89;1681324;84;21644;-73
2021/10/23 08:01:03;;;;;;;36.63;20.40;;;;;;;12.75;100.00;100067.05;1717766;82;21029;-71
2021/10/23 08:03:32;;;;;;;30.90;19.48;;;;;;;12.81;100.00;100073.08;1706890;82;21038;-71
2021/10/23 08:05:59;;;;;;;28.98;17.65;;;;;;;12.84;100.00;100074.08;1711888;82;21000;-70
2021/10/23 08:08:25;;;;;;;35.85;20.45;;;;;;;12.87;100.00;100065.57;1694585;84;21006;-72
2021/10/23 08:10:58;;;;;;;33.42;19.15;;;;;;;12.93;100.00;100066.69;1656813;83;21112;-72
2021/10/23 08:13:26;;;;;;;33.70;19.57;;;;;;;12.99;100.00;100059.15;1605766;87;21633;-71
2021/10/23 08:15:54;;;;;;;34.75;19.30;;;;;;;13.07;100.00;100062.31;1615119;86;21678;-71
2021/10/23 08:18:22;;;;;;;33.58;19.25;;;;;;;13.11;100.00;100064.45;1596717;87;21091;-70
2021/10/23 08:20:51;;;;;;;33.18;19.50;;;;;;;13.17;100.00;100068.27;1621385;87;21038;-70
2021/10/23 08:23:18;;;;;;;34.10;19.15;;;;;;;13.24;100.00;100062.95;1593608;88;21073;-71
2021/10/23 08:25:45;;;;;;;36.08;20.60;;;;;;;13.33;100.00;100048.27;1599414;87;21035;-71
2021/10/23 08:28:12;;;;;;;36.20;20.60;;;;;;;13.42;100.00;100045.80;1618494;86;21141;-71
2021/10/23 08:30:41;;;;;;;38.55;20.75;;;;;;;13.54;100.00;100043.41;1629715;87;21586;-71
2021/10/23 08:33:09;;;;;;;34.48;20.55;;;;;;;13.65;100.00;100044.30;1607174;87;21654;-70
2021/10/23 08:35:38;;;;;;;31.75;18.05;;;;;;;13.72;100.00;100037.56;1620537;87;21684;-71
2021/10/23 08:38:05;;;;;;;31.23;18.27;;;;;;;13.75;100.00;100039.90;1619138;87;21697;-72
2021/10/23 08:40:32;;;;;;;31.50;17.85;;;;;;;13.81;100.00;100036.43;1631786;86;21046;-72
2021/10/23 08:43:02;;;;;;;29.77;17.42;;;;;;;13.89;100.00;100030.02;1608125;87;21066;-68
2021/10/23 08:45:30;;;;;;;29.37;16.73;;;;;;;13.98;100.00;100020.70;1618323;87;21123;-72
2021/10/23 08:47:58;;;;;;;31.12;18.23;;;;;;;14.08;100.00;100027.19;1621246;87;21007;-71
2021/10/23 08:50:27;;;;;;;27.02;16.37;;;;;;;14.13;100.00;100017.07;1617667;86;21085;-72
2021/10/23 08:52:58;;;;;;;30.35;17.73;;;;;;;14.13;100.00;100006.19;1600589;88;21107;-73
2021/10/23 08:55:23;;;;;;;34.38;18.98;;;;;;;14.12;100.00;100009.97;1594074;87;21103;-72
2021/10/23 08:57:51;;;;;;;30.10;18.20;;;;;;;14.08;100.00;100009.52;1623982;87;21096;-71
2021/10/23 09:00:19;;;;;;;40.17;19.27;;;;;;;14.03;100.00;100007.37;1627148;86;21634;-71
2021/10/23 09:02:48;;;;;;;31.02;18.05;;;;;;;14.00;100.00;100018.62;1614523;87;21542;-73
2021/10/23 09:05:17;;;;;;;31.25;18.40;;;;;;;13.96;100.00;100036.89;1608296;86;21450;-75
2021/10/23 09:07:49;;;;;;;32.05;18.85;;;;;;;13.90;100.00;100046.66;1634334;86;21038;-74
2021/10/23 09:10:30;;;;;;;31.27;19.40;;;;;;;13.87;100.00;100051.13;1618696;87;21122;-72
2021/10/23 09:13:05;;;;;;;35.35;19.95;;;;;;;13.88;100.00;100056.86;1610127;87;21080;-71
2021/10/23 09:15:39;;;;;;;37.35;21.97;;;;;;;13.90;100.00;100058.03;1606690;87;21553;-73
2021/10/23 09:18:07;;;;;;;34.67;20.17;;;;;;;13.91;100.00;100052.94;1634779;87;21050;-68
2021/10/23 09:20:41;;;;;;;35.58;18.40;;;;;;;13.95;100.00;100053.73;1610790;87;21157;-71
2021/10/23 09:23:19;;;;;;;31.50;16.95;;;;;;;13.99;100.00;100054.19;1642565;86;21109;-73
2021/10/23 09:25:46;;;;;;;30.27;17.60;;;;;;;13.99;100.00;100052.30;1641498;86;21648;-71
2021/10/23 09:28:16;;;;;;;34.25;18.23;;;;;;;14.04;100.00;100052.56;1630791;87;21049;-69
2021/10/23 09:30:49;;;;;;;29.85;18.20;;;;;;;14.14;100.00;100053.59;1630573;87;21029;-72
2021/10/23 09:33:25;;;;;;;29.92;17.42;;;;;;;14.24;100.00;100051.39;1640566;86;21045;-73
2021/10/23 09:35:59;;;;;;;42.67;18.70;;;;;;;14.34;100.00;100050.21;1647642;86;21096;-72
2021/10/23 09:38:32;;;;;;;32.63;17.35;;;;;;;14.39;100.00;100043.14;1623060;87;21046;-75
2021/10/23 09:41:25;;;;;;;35.25;17.62;;;;;;;14.42;100.00;100036.48;1661847;86;21085;-72
2021/10/23 09:43:49;;;;;;;38.02;17.87;;;;;;;14.47;100.00;100038.62;1643880;86;21119;-72
2021/10/23 09:46:24;;;;;;;37.05;16.20;;;;;;;14.50;100.00;100039.58;1645381;86;21240;-73
2021/10/23 09:48:52;;;;;;;38.38;16.45;;;;;;;14.56;100.00;100031.47;1644894;86;21138;-73
2021/10/23 09:51:30;;;;;;;33.23;15.25;;;;;;;14.64;100.00;100031.86;1640486;86;21074;-73
2021/10/23 09:54:02;;;;;;;29.25;14.25;;;;;;;14.68;100.00;100036.39;1645414;86;21101;-73
2021/10/23 09:56:36;;;;;;;32.78;14.90;;;;;;;14.69;100.00;100036.20;1623053;86;21117;-74
2021/10/23 09:59:13;;;;;;;33.85;14.68;;;;;;;14.71;100.00;100042.80;1599720;89;21075;-69
2021/10/23 10:01:44;;;;;;;25.17;13.10;;;;;;;14.70;100.00;100050.67;1580219;89;21123;-74
2021/10/23 10:04:13;;;;;;;23.27;11.95;;;;;;;14.68;100.00;100048.14;1613128;88;21090;-72
2021/10/23 10:06:46;;;;;;;21.57;11.68;;;;;;;14.71;100.00;100047.72;1573573;90;21599;-71
2021/10/23 10:09:16;;;;;;;21.52;10.50;;;;;;;14.77;100.00;100043.39;1584513;88;21047;-72
2021/10/23 10:11:43;;;;;;;31.97;11.60;;;;;;;14.83;100.00;100038.50;1627439;87;21547;-71
2021/10/23 10:14:12;;;;;;;23.80;11.15;;;;;;;14.88;100.00;100043.36;1609935;89;21051;-72
2021/10/23 10:16:44;;;;;;;19.87;9.08;;;;;;;14.93;100.00;100041.72;1622799;88;21657;-71
2021/10/23 10:19:19;;;;;;;17.87;8.23;;;;;;;15.00;100.00;100040.41;1598008;87;21013;-68
2021/10/23 10:21:46;;;;;;;15.40;7.47;;;;;;;14.99;100.00;100032.73;1631970;87;21011;-68
2021/10/23 10:24:32;;;;;;;19.15;8.13;;;;;;;15.00;100.00;100034.42;1628695;87;21110;-67
2021/10/23 10:27:11;;;;;;;19.27;8.05;;;;;;;14.99;100.00;100035.98;1650006;86;21596;-72
2021/10/23 10:32:24;;;;;;;19.40;8.65;;;;;;;15.06;100.00;100017.80;1579612;90;21594;-73
2021/10/23 10:43:09;;;;;;;25.23;10.85;;;;;;;15.23;100.00;100012.88;1556719;92;21094;-72
2021/10/23 10:45:47;;;;;;;33.78;11.63;;;;;;;15.26;100.00;100018.42;1509987;94;21174;-72
2021/10/23 10:48:35;;;;;;;21.50;10.60;;;;;;;15.29;100.00;100020.75;1512182;95;21142;-72
2021/10/23 10:51:14;;;;;;;27.17;10.93;;;;;;;15.31;100.00;100029.03;1516045;93;22368;-73
2021/10/23 10:53:43;;;;;;;23.52;10.25;;;;;;;15.38;100.00;100021.72;1508595;94;21137;-72
2021/10/23 10:56:14;;;;;;;20.27;8.30;;;;;;;15.46;100.00;100020.73;1510827;94;21142;-72
2021/10/23 10:58:55;;;;;;;18.77;8.83;;;;;;;15.47;100.00;100025.11;1479842;96;21197;-71
2021/10/23 11:01:33;;;;;;;22.27;8.50;;;;;;;15.44;100.00;100032.36;1497416;95;21645;-72
2021/10/23 11:04:06;;;;;;;19.27;8.28;;;;;;;15.41;100.00;100030.56;1497685;95;21144;-71
2021/10/23 11:06:45;;;;;;;18.82;7.92;;;;;;;15.41;100.00;100040.92;1501570;95;21150;-68
2021/10/23 11:09:17;;;;;;;22.93;9.00;;;;;;;15.41;100.00;100036.84;1507244;94;21134;-71
2021/10/23 11:11:50;;;;;;;23.10;9.48;;;;;;;15.42;100.00;100034.42;1501460;93;21650;-73
2021/10/23 11:17:12;;;;;;;20.80;9.80;;;;;;;15.42;100.00;100030.86;1530083;92;21049;-72
2021/10/23 11:19:44;;;;;;;24.60;11.88;;;;;;;15.38;100.00;100028.53;1508276;93;21661;-71
2021/10/23 11:22:34;;;;;;;25.35;12.63;;;;;;;15.38;100.00;100042.16;1535235;91;21110;-71
2021/10/23 11:25:08;;;;;;;22.58;10.55;;;;;;;15.37;100.00;100052.75;1510240;95;21178;-72
2021/10/23 11:27:48;;;;;;;21.55;8.78;;;;;;;15.33;100.00;100062.38;1522236;93;21109;-71